Time;durP1;ratioP1;P1;durP2;ratioP2;P2;SDS_P1;SDS_P2;PMS_P1;PMS_P2;Temp;Humidity;BMP_temperature;BMP_pressure;BME280_temperature;BME280_humidity;BME280_pressure;Samples;Min_cycle;Max_cycle;Signal;HPM_P1;HPM_P2
2021/03/09 00:01:56;;;;;;;5.97;4.82;;;;;;;;;;5016589;28;20327;-49
2021/03/09 00:04:22;;;;;;;6.95;4.80;;;;;;;;;;5014639;28;20203;-49
2021/03/09 00:06:48;;;;;;;6.50;4.22;;;;;;;;;;5015774;28;20191;-49
2021/03/09 00:09:14;;;;;;;4.35;3.95;;;;;;;;;;5023162;28;20575;-49
2021/03/09 00:11:41;;;;;;;5.88;4.25;;;;;;;;;;5018175;28;20190;-48
2021/03/09 00:14:07;;;;;;;6.18;4.85;;;;;;;;;;5028151;28;20187;-49
2021/03/09 00:16:33;;;;;;;5.22;4.20;;;;;;;;;;5028296;28;20231;-48
2021/03/09 00:18:59;;;;;;;5.95;4.53;;;;;;;;;;5034395;28;20579;-49
2021/03/09 00:21:25;;;;;;;5.95;4.35;;;;;;;;;;5033890;28;20457;-49
2021/03/09 00:23:51;;;;;;;4.40;4.00;;;;;;;;;;5026014;28;20181;-49
2021/03/09 00:26:17;;;;;;;5.40;4.72;;;;;;;;;;5030809;28;20253;-48
2021/03/09 00:28:43;;;;;;;5.22;4.25;;;;;;;;;;5025113;28;20270;-49
2021/03/09 00:31:09;;;;;;;5.72;4.32;;;;;;;;;;5020887;28;20192;-49
2021/03/09 00:33:35;;;;;;;5.07;4.57;;;;;;;;;;5014645;28;20184;-49
2021/03/09 00:36:01;;;;;;;5.18;4.32;;;;;;;;;;5023953;28;20193;-49
2021/03/09 00:38:27;;;;;;;5.47;4.43;;;;;;;;;;5023119;28;20207;-49
2021/03/09 00:40:53;;;;;;;6.32;4.25;;;;;;;;;;5033969;28;20184;-49
2021/03/09 00:43:19;;;;;;;5.20;4.15;;;;;;;;;;5028902;28;20259;-48
2021/03/09 00:45:45;;;;;;;5.63;4.45;;;;;;;;;;5026438;28;20773;-49
2021/03/09 00:48:11;;;;;;;5.72;4.57;;;;;;;;;;5016402;28;20193;-48
2021/03/09 00:50:37;;;;;;;4.28;3.88;;;;;;;;;;5019927;28;20180;-49
2021/03/09 00:53:03;;;;;;;5.00;4.03;;;;;;;;;;5016026;28;20197;-49
2021/03/09 00:55:29;;;;;;;6.43;4.47;;;;;;;;;;5014396;28;20184;-49
2021/03/09 00:57:55;;;;;;;5.63;3.92;;;;;;;;;;5017352;28;20242;-48
2021/03/09 01:00:22;;;;;;;5.07;4.60;;;;;;;;;;5026246;28;20263;-49
2021/03/09 01:02:48;;;;;;;4.10;3.70;;;;;;;;;;5019880;28;20180;-49
2021/03/09 01:05:14;;;;;;;4.65;4.00;;;;;;;;;;5013006;28;20189;-49
2021/03/09 01:07:40;;;;;;;4.15;3.50;;;;;;;;;;5018820;28;20206;-49
2021/03/09 01:10:06;;;;;;;5.72;5.00;;;;;;;;;;5033184;28;20180;-49
2021/03/09 01:12:32;;;;;;;5.20;4.35;;;;;;;;;;5032218;28;20195;-49
2021/03/09 01:14:58;;;;;;;4.35;3.90;;;;;;;;;;5029223;28;20785;-49
2021/03/09 01:17:24;;;;;;;4.30;3.90;;;;;;;;;;5017898;28;20214;-48
2021/03/09 01:19:50;;;;;;;5.10;4.07;;;;;;;;;;5033208;28;20171;-49
2021/03/09 01:22:16;;;;;;;4.75;3.90;;;;;;;;;;5016989;28;20172;-49
2021/03/09 01:24:42;;;;;;;4.68;4.00;;;;;;;;;;5024338;28;20188;-49
2021/03/09 01:27:11;;;;;;;4.07;3.60;;;;;;;;;;5032414;28;20543;-49
2021/03/09 01:29:37;;;;;;;4.45;4.05;;;;;;;;;;5016532;28;20210;-49
2021/03/09 01:32:03;;;;;;;4.53;4.03;;;;;;;;;;5024580;28;20192;-49
2021/03/09 01:34:29;;;;;;;4.20;3.78;;;;;;;;;;5013211;28;20630;-49
2021/03/09 01:36:55;;;;;;;4.25;3.85;;;;;;;;;;5023851;28;20264;-49
2021/03/09 01:39:21;;;;;;;4.60;3.83;;;;;;;;;;5018372;28;20184;-49
2021/03/09 01:41:48;;;;;;;3.75;3.45;;;;;;;;;;5031709;28;20551;-49
2021/03/09 01:44:14;;;;;;;4.50;4.10;;;;;;;;;;5018977;28;20182;-49
2021/03/09 01:46:41;;;;;;;5.05;4.22;;;;;;;;;;5027530;28;20267;-49
2021/03/09 01:49:08;;;;;;;4.45;3.78;;;;;;;;;;5013295;28;20204;-48
2021/03/09 01:51:34;;;;;;;4.30;3.90;;;;;;;;;;5028770;28;20183;-49
2021/03/09 01:54:00;;;;;;;3.92;3.63;;;;;;;;;;5030003;28;20255;-49
2021/03/09 01:56:27;;;;;;;5.00;4.22;;;;;;;;;;5036406;28;20271;-49
2021/03/09 01:58:54;;;;;;;4.20;3.80;;;;;;;;;;5024344;28;20255;-49
2021/03/09 02:01:20;;;;;;;4.25;3.85;;;;;;;;;;5029206;28;20204;-49
2021/03/09 02:03:47;;;;;;;4.22;3.75;;;;;;;;;;5028468;28;20192;-49
2021/03/09 02:06:16;;;;;;;4.05;3.67;;;;;;;;;;5024996;28;20183;-48
2021/03/09 02:08:42;;;;;;;4.07;3.67;;;;;;;;;;5024191;28;20196;-49
2021/03/09 02:11:18;;;;;;;4.22;3.83;;;;;;;;;;5029384;28;20192;-49
2021/03/09 02:13:59;;;;;;;4.85;4.05;;;;;;;;;;5019601;28;20199;-49
2021/03/09 02:16:39;;;;;;;4.15;3.75;;;;;;;;;;5028694;28;20187;-49
2021/03/09 02:19:24;;;;;;;4.13;3.38;;;;;;;;;;5027878;28;20206;-49
2021/03/09 02:22:08;;;;;;;4.22;3.70;;;;;;;;;;5036664;28;20183;-49
2021/03/09 02:24:53;;;;;;;3.80;3.50;;;;;;;;;;5028580;28;20200;-49
2021/03/09 02:27:34;;;;;;;4.00;3.53;;;;;;;;;;5033862;28;20199;-49
2021/03/09 02:30:06;;;;;;;3.83;3.20;;;;;;;;;;5026408;28;20199;-49
2021/03/09 02:32:36;;;;;;;3.90;3.50;;;;;;;;;;5036172;28;20176;-49
2021/03/09 02:35:02;;;;;;;3.40;3.10;;;;;;;;;;5015940;28;20200;-49
2021/03/09 02:37:34;;;;;;;4.22;3.78;;;;;;;;;;5016484;28;20223;-49
2021/03/09 02:40:00;;;;;;;3.40;3.10;;;;;;;;;;5015796;28;20183;-49
2021/03/09 02:42:27;;;;;;;3.95;3.55;;;;;;;;;;5024361;28;20190;-49
2021/03/09 02:44:55;;;;;;;3.60;3.28;;;;;;;;;;5027744;28;20266;-49
2021/03/09 02:47:22;;;;;;;3.65;3.35;;;;;;;;;;5035069;28;20228;-49
2021/03/09 02:49:49;;;;;;;4.10;3.70;;;;;;;;;;5036309;28;20180;-49
2021/03/09 02:52:20;;;;;;;3.95;3.60;;;;;;;;;;5036098;28;20184;-49
2021/03/09 02:54:46;;;;;;;3.95;3.55;;;;;;;;;;5025716;28;20266;-49
2021/03/09 02:57:13;;;;;;;3.70;3.30;;;;;;;;;;5017187;28;20584;-49
2021/03/09 02:59:41;;;;;;;4.40;4.00;;;;;;;;;;5028967;28;20199;-49
2021/03/09 03:02:07;;;;;;;3.92;3.53;;;;;;;;;;5024099;28;20202;-49
2021/03/09 03:04:34;;;;;;;3.55;3.22;;;;;;;;;;5034560;28;20456;-49
2021/03/09 03:07:00;;;;;;;3.30;3.00;;;;;;;;;;5035867;28;20210;-49
2021/03/09 03:09:27;;;;;;;3.92;3.53;;;;;;;;;;5024624;28;20176;-49
2021/03/09 03:11:54;;;;;;;3.63;3.00;;;;;;;;;;5015236;28;20467;-49
2021/03/09 03:14:20;;;;;;;3.75;3.40;;;;;;;;;;5028061;28;20180;-49
2021/03/09 03:16:46;;;;;;;3.70;3.40;;;;;;;;;;5028613;28;20255;-49
2021/03/09 03:19:13;;;;;;;3.55;3.25;;;;;;;;;;5015935;28;20173;-49
2021/03/09 03:21:40;;;;;;;4.57;3.55;;;;;;;;;;5018084;28;20177;-49
2021/03/09 03:24:07;;;;;;;4.10;3.45;;;;;;;;;;5029995;28;20195;-49
2021/03/09 03:26:36;;;;;;;3.50;3.20;;;;;;;;;;5033427;28;20196;-49
2021/03/09 03:29:04;;;;;;;3.30;3.00;;;;;;;;;;5035152;28;20578;-49
2021/03/09 03:31:31;;;;;;;3.17;2.97;;;;;;;;;;5022866;28;20184;-49
2021/03/09 03:33:57;;;;;;;3.75;3.42;;;;;;;;;;5034690;28;20452;-49
2021/03/09 03:36:23;;;;;;;3.55;3.25;;;;;;;;;;5029493;28;20552;-49
2021/03/09 03:38:49;;;;;;;3.90;3.50;;;;;;;;;;5034481;28;20219;-49
2021/03/09 03:41:15;;;;;;;3.70;3.20;;;;;;;;;;5030832;28;20191;-49
2021/03/09 03:43:42;;;;;;;3.28;2.97;;;;;;;;;;5024748;28;20193;-49
2021/03/09 03:46:08;;;;;;;3.30;3.00;;;;;;;;;;5020950;28;20203;-49
2021/03/09 03:48:35;;;;;;;3.22;2.92;;;;;;;;;;5015593;28;20532;-49
2021/03/09 03:51:02;;;;;;;3.10;2.90;;;;;;;;;;5027734;28;20262;-49
2021/03/09 03:53:30;;;;;;;3.50;3.20;;;;;;;;;;5034726;28;20559;-48
2021/03/09 03:56:15;;;;;;;3.35;3.05;;;;;;;;;;5029006;28;20501;-49
2021/03/09 03:58:41;;;;;;;3.50;3.20;;;;;;;;;;5025782;28;20495;-49
2021/03/09 04:01:07;;;;;;;3.22;3.00;;;;;;;;;;5018986;28;20638;-49
2021/03/09 04:03:34;;;;;;;3.40;3.10;;;;;;;;;;5017341;28;20448;-49
2021/03/09 04:06:02;;;;;;;3.22;2.92;;;;;;;;;;5024135;28;20199;-49
2021/03/09 04:08:29;;;;;;;3.20;2.95;;;;;;;;;;5015296;28;20771;-49
2021/03/09 04:10:56;;;;;;;3.60;3.30;;;;;;;;;;5015166;28;20202;-49
2021/03/09 04:13:25;;;;;;;2.95;2.75;;;;;;;;;;5014069;28;20192;-48
2021/03/09 04:15:51;;;;;;;3.05;2.80;;;;;;;;;;5023188;28;20228;-49
2021/03/09 04:18:18;;;;;;;2.75;2.55;;;;;;;;;;5016853;28;20213;-49
2021/03/09 04:20:44;;;;;;;3.35;3.05;;;;;;;;;;5031502;28;20259;-49
2021/03/09 04:23:11;;;;;;;3.13;2.83;;;;;;;;;;5034306;28;20180;-49
2021/03/09 04:25:38;;;;;;;3.42;3.13;;;;;;;;;;5025088;28;20179;-49
2021/03/09 04:28:05;;;;;;;3.00;2.80;;;;;;;;;;5020208;28;20196;-48
2021/03/09 04:30:32;;;;;;;3.17;2.88;;;;;;;;;;5021927;28;20264;-49
2021/03/09 04:32:59;;;;;;;3.20;2.90;;;;;;;;;;5029418;28;20262;-49
2021/03/09 04:35:25;;;;;;;2.95;2.75;;;;;;;;;;5017015;28;20184;-49
2021/03/09 04:37:51;;;;;;;3.00;2.70;;;;;;;;;;5018072;28;20208;-49
2021/03/09 04:40:17;;;;;;;2.80;2.50;;;;;;;;;;5034180;28;20180;-49
2021/03/09 04:42:43;;;;;;;3.20;2.90;;;;;;;;;;5034013;28;20183;-49
2021/03/09 04:45:11;;;;;;;3.50;3.15;;;;;;;;;;5019797;28;20226;-49
2021/03/09 04:47:37;;;;;;;3.67;3.30;;;;;;;;;;5030141;28;20581;-49
2021/03/09 04:50:06;;;;;;;4.28;3.53;;;;;;;;;;5024550;28;20471;-49
2021/03/09 04:52:32;;;;;;;3.65;3.35;;;;;;;;;;5034075;28;20188;-49
2021/03/09 04:54:58;;;;;;;3.83;3.22;;;;;;;;;;5023883;28;20191;-49
2021/03/09 04:57:36;;;;;;;3.10;2.85;;;;;;;;;;5033150;28;20234;-49
2021/03/09 05:00:03;;;;;;;3.13;2.88;;;;;;;;;;5029979;28;20191;-50
2021/03/09 05:02:29;;;;;;;2.95;2.67;;;;;;;;;;5019777;28;20207;-49
2021/03/09 05:04:55;;;;;;;3.53;3.20;;;;;;;;;;5018880;28;20184;-49
2021/03/09 05:07:21;;;;;;;3.35;3.05;;;;;;;;;;5014138;28;20267;-49
2021/03/09 05:09:47;;;;;;;3.85;3.55;;;;;;;;;;5014319;28;20191;-49
2021/03/09 05:12:13;;;;;;;3.30;3.00;;;;;;;;;;5023655;28;20286;-49
2021/03/09 05:14:39;;;;;;;3.35;3.05;;;;;;;;;;5024353;28;20828;-49
2021/03/09 05:17:05;;;;;;;3.38;3.05;;;;;;;;;;5027939;28;20169;-49
2021/03/09 05:19:31;;;;;;;3.15;2.85;;;;;;;;;;5013930;28;20264;-49
2021/03/09 05:21:57;;;;;;;3.60;3.08;;;;;;;;;;5013777;28;20180;-49
2021/03/09 05:24:23;;;;;;;3.78;3.38;;;;;;;;;;5022432;28;20194;-49
2021/03/09 05:26:49;;;;;;;3.92;3.50;;;;;;;;;;5026924;28;20183;-49
2021/03/09 05:29:15;;;;;;;3.22;2.92;;;;;;;;;;5031742;28;20176;-49
2021/03/09 05:31:41;;;;;;;3.38;3.08;;;;;;;;;;5029399;28;20453;-49
2021/03/09 05:34:07;;;;;;;3.45;3.15;;;;;;;;;;5023023;28;20191;-49
2021/03/09 05:36:33;;;;;;;3.40;3.10;;;;;;;;;;5034213;28;20187;-49
2021/03/09 05:38:59;;;;;;;3.25;3.00;;;;;;;;;;5017468;28;20200;-49
2021/03/09 05:41:25;;;;;;;3.38;3.08;;;;;;;;;;5021059;28;20182;-49
2021/03/09 05:43:52;;;;;;;3.45;3.15;;;;;;;;;;5032349;28;20196;-49
2021/03/09 05:46:18;;;;;;;3.58;3.28;;;;;;;;;;5030165;28;20195;-49
2021/03/09 05:48:44;;;;;;;3.00;2.70;;;;;;;;;;5037346;28;20187;-49
2021/03/09 05:51:10;;;;;;;3.30;3.00;;;;;;;;;;5023771;28;20180;-49
2021/03/09 05:53:36;;;;;;;3.45;3.15;;;;;;;;;;5037125;28;20490;-49
2021/03/09 05:56:06;;;;;;;3.90;3.20;;;;;;;;;;5025209;28;20223;-49
2021/03/09 05:58:32;;;;;;;3.35;3.05;;;;;;;;;;5020925;28;20273;-49
2021/03/09 06:00:58;;;;;;;3.30;3.00;;;;;;;;;;5030803;28;20195;-49
2021/03/09 06:03:27;;;;;;;3.40;3.08;;;;;;;;;;5032045;28;20249;-49
2021/03/09 06:05:53;;;;;;;3.55;3.25;;;;;;;;;;5027753;28;20242;-49
2021/03/09 06:08:19;;;;;;;3.20;2.90;;;;;;;;;;5027583;28;20234;-50
2021/03/09 06:10:47;;;;;;;3.63;3.33;;;;;;;;;;5017908;28;20188;-49
2021/03/09 06:13:31;;;;;;;3.20;2.90;;;;;;;;;;5024410;28;20191;-48
2021/03/09 06:15:57;;;;;;;4.22;3.13;;;;;;;;;;5019713;28;20193;-49
2021/03/09 06:18:24;;;;;;;3.63;3.25;;;;;;;;;;5033324;28;20214;-49
2021/03/09 06:20:50;;;;;;;3.22;2.92;;;;;;;;;;5036139;28;20198;-49
2021/03/09 06:23:26;;;;;;;3.72;3.28;;;;;;;;;;5036771;28;20179;-49
2021/03/09 06:25:52;;;;;;;3.85;3.45;;;;;;;;;;5029305;28;20574;-49
2021/03/09 06:28:29;;;;;;;3.90;3.28;;;;;;;;;;5032358;28;20571;-49
2021/03/09 06:30:55;;;;;;;3.15;2.90;;;;;;;;;;5036286;28;20167;-49
2021/03/09 06:33:28;;;;;;;3.55;3.25;;;;;;;;;;5031930;28;20183;-49
2021/03/09 06:36:00;;;;;;;5.97;3.00;;;;;;;;;;5027646;28;20196;-49
2021/03/09 06:38:30;;;;;;;5.18;2.97;;;;;;;;;;5016407;28;20563;-49
2021/03/09 06:41:05;;;;;;;3.92;3.20;;;;;;;;;;5029304;28;20498;-49
2021/03/09 06:43:32;;;;;;;3.30;3.00;;;;;;;;;;5021783;28;20270;-49
2021/03/09 06:46:11;;;;;;;3.13;2.80;;;;;;;;;;5028949;28;20192;-49
2021/03/09 06:48:40;;;;;;;3.63;3.20;;;;;;;;;;5036398;28;20195;-49
2021/03/09 06:51:07;;;;;;;3.63;3.10;;;;;;;;;;5033839;28;20187;-49
2021/03/09 06:53:33;;;;;;;4.05;3.45;;;;;;;;;;5030172;28;20233;-49
2021/03/09 06:55:59;;;;;;;4.50;2.90;;;;;;;;;;5033480;28;20187;-49
2021/03/09 06:58:29;;;;;;;4.45;3.10;;;;;;;;;;5032229;28;20211;-49
2021/03/09 07:01:12;;;;;;;3.15;2.85;;;;;;;;;;5018357;28;20239;-49
2021/03/09 07:03:38;;;;;;;3.80;2.90;;;;;;;;;;5034192;28;20192;-49
2021/03/09 07:06:04;;;;;;;6.05;3.03;;;;;;;;;;5015376;28;20207;-49
2021/03/09 07:08:30;;;;;;;5.10;2.92;;;;;;;;;;5026135;28;20192;-53
2021/03/09 07:10:57;;;;;;;3.63;3.30;;;;;;;;;;5025941;28;20180;-53
2021/03/09 07:13:24;;;;;;;3.40;3.00;;;;;;;;;;5033690;28;20605;-50
2021/03/09 07:15:51;;;;;;;4.30;3.08;;;;;;;;;;5035485;28;20451;-49
2021/03/09 07:18:20;;;;;;;4.80;2.90;;;;;;;;;;5034690;28;20212;-48
2021/03/09 07:20:47;;;;;;;3.67;3.00;;;;;;;;;;5035447;28;20180;-49
2021/03/09 07:23:17;;;;;;;4.57;2.92;;;;;;;;;;5030880;28;20190;-50
2021/03/09 07:25:44;;;;;;;4.35;3.25;;;;;;;;;;5024068;28;20197;-52
2021/03/09 07:28:10;;;;;;;4.32;3.15;;;;;;;;;;5034005;28;20237;-49
2021/03/09 07:30:39;;;;;;;4.50;3.15;;;;;;;;;;5022974;28;20560;-53
2021/03/09 07:33:06;;;;;;;4.03;3.22;;;;;;;;;;5029551;28;20176;-54
2021/03/09 07:35:32;;;;;;;3.83;3.53;;;;;;;;;;5024347;28;20439;-52
2021/03/09 07:37:58;;;;;;;3.83;3.25;;;;;;;;;;5023113;28;20606;-47
2021/03/09 07:40:25;;;;;;;3.88;3.10;;;;;;;;;;5028488;28;20191;-47
2021/03/09 07:42:51;;;;;;;3.78;3.33;;;;;;;;;;5033293;28;20197;-47
2021/03/09 07:45:18;;;;;;;6.90;3.40;;;;;;;;;;5018494;28;20184;-48
2021/03/09 07:47:55;;;;;;;4.50;3.00;;;;;;;;;;5023264;28;20200;-47
2021/03/09 07:50:21;;;;;;;5.00;3.00;;;;;;;;;;5015061;28;20191;-47
2021/03/09 07:53:00;;;;;;;6.45;3.80;;;;;;;;;;5021629;28;20183;-47
2021/03/09 07:55:26;;;;;;;6.78;3.40;;;;;;;;;;5030675;28;20227;-47
2021/03/09 07:58:10;;;;;;;5.40;3.17;;;;;;;;;;5021922;28;20220;-47
2021/03/09 08:00:50;;;;;;;6.40;3.80;;;;;;;;;;5020506;28;20271;-47
2021/03/09 08:03:22;;;;;;;5.05;3.58;;;;;;;;;;5025895;28;20570;-46
2021/03/09 08:05:56;;;;;;;5.43;3.47;;;;;;;;;;5030431;28;20188;-46
2021/03/09 08:08:41;;;;;;;7.13;3.50;;;;;;;;;;5031262;28;20194;-46
2021/03/09 08:11:09;;;;;;;3.65;3.30;;;;;;;;;;5017835;28;20250;-46
2021/03/09 08:13:35;;;;;;;6.57;3.65;;;;;;;;;;5023513;28;20199;-46
2021/03/09 08:16:25;;;;;;;4.47;3.55;;;;;;;;;;5034017;28;20180;-46
2021/03/09 08:18:52;;;;;;;5.90;3.30;;;;;;;;;;5023278;28;20641;-50
2021/03/09 08:21:19;;;;;;;4.53;3.20;;;;;;;;;;5033890;28;20217;-49
2021/03/09 08:23:45;;;;;;;3.17;2.88;;;;;;;;;;5025757;28;20432;-49
2021/03/09 08:26:14;;;;;;;4.07;3.28;;;;;;;;;;5027899;28;20184;-51
2021/03/09 08:28:41;;;;;;;4.15;3.45;;;;;;;;;;5034232;28;20304;-49
2021/03/09 08:31:13;;;;;;;9.80;3.55;;;;;;;;;;5031573;28;20736;-50
2021/03/09 08:33:39;;;;;;;6.03;3.30;;;;;;;;;;5034330;28;20193;-49
2021/03/09 08:36:24;;;;;;;3.17;2.90;;;;;;;;;;5026800;28;20198;-50
2021/03/09 08:39:08;;;;;;;4.65;2.90;;;;;;;;;;5028707;28;20303;-50
2021/03/09 08:41:36;;;;;;;4.32;2.83;;;;;;;;;;5033558;28;20180;-56
2021/03/09 08:44:21;;;;;;;3.38;2.83;;;;;;;;;;5014747;28;20180;-49
2021/03/09 08:47:05;;;;;;;4.40;3.40;;;;;;;;;;5016714;28;20184;-49
2021/03/09 08:49:40;;;;;;;2.97;2.78;;;;;;;;;;5034226;28;20180;-52
2021/03/09 08:52:09;;;;;;;3.85;3.10;;;;;;;;;;5033070;28;20187;-50
2021/03/09 08:54:45;;;;;;;4.43;3.20;;;;;;;;;;5015064;28;20207;-49
2021/03/09 08:57:21;;;;;;;3.25;2.90;;;;;;;;;;5016737;28;20633;-49
2021/03/09 08:59:48;;;;;;;4.07;3.03;;;;;;;;;;5034015;28;20179;-49
2021/03/09 09:02:14;;;;;;;4.70;3.17;;;;;;;;;;5033178;28;20218;-50
2021/03/09 09:04:41;;;;;;;3.70;3.17;;;;;;;;;;5021047;28;20275;-51
2021/03/09 09:07:21;;;;;;;4.85;3.22;;;;;;;;;;5023334;28;20175;-54
2021/03/09 09:09:47;;;;;;;3.03;2.78;;;;;;;;;;5031104;28;20559;-50
2021/03/09 09:12:21;;;;;;;3.42;2.80;;;;;;;;;;5030052;28;20271;-51
2021/03/09 09:14:47;;;;;;;3.30;3.00;;;;;;;;;;5020709;28;20202;-53
2021/03/09 09:17:13;;;;;;;3.22;2.83;;;;;;;;;;5021273;28;20272;-49
2021/03/09 09:19:39;;;;;;;3.70;3.40;;;;;;;;;;5027475;28;20259;-54
2021/03/09 09:22:05;;;;;;;5.25;3.30;;;;;;;;;;5022503;28;20260;-50
2021/03/09 09:24:31;;;;;;;3.60;2.97;;;;;;;;;;5027368;28;20675;-62
2021/03/09 09:26:58;;;;;;;4.18;3.47;;;;;;;;;;5032458;28;20180;-53
2021/03/09 09:29:24;;;;;;;4.97;3.20;;;;;;;;;;5024122;28;20189;-50
2021/03/09 09:38:00;;;;;;;5.88;3.67;;;;;;;;;;5028122;28;20230;-50
2021/03/09 09:40:28;;;;;;;4.25;3.00;;;;;;;;;;5023863;28;20263;-54
2021/03/09 09:42:59;;;;;;;3.47;3.03;;;;;;;;;;5017224;28;20180;-49
2021/03/09 09:45:26;;;;;;;5.45;2.83;;;;;;;;;;5027365;28;20184;-56
2021/03/09 09:47:52;;;;;;;4.10;2.60;;;;;;;;;;5028705;28;20219;-56
2021/03/09 09:50:19;;;;;;;3.80;2.55;;;;;;;;;;5032601;28;20511;-49
2021/03/09 09:52:59;;;;;;;6.30;2.95;;;;;;;;;;5023778;28;20283;-53
2021/03/09 09:55:26;;;;;;;5.43;2.92;;;;;;;;;;5026342;28;20423;-59
2021/03/09 09:57:53;;;;;;;7.88;3.08;;;;;;;;;;5027640;28;20203;-55
2021/03/09 10:00:23;;;;;;;9.65;6.57;;;;;;;;;;5019532;28;20183;-50
2021/03/09 10:03:08;;;;;;;13.05;8.43;;;;;;;;;;5025686;28;20222;-49
2021/03/09 10:05:34;;;;;;;12.70;8.05;;;;;;;;;;5018090;28;20187;-57
2021/03/09 10:08:00;;;;;;;12.43;6.95;;;;;;;;;;5028683;28;20257;-53
2021/03/09 10:10:26;;;;;;;16.20;5.57;;;;;;;;;;5025140;28;20261;-50
2021/03/09 10:12:52;;;;;;;10.60;5.68;;;;;;;;;;5030173;28;20219;-50
2021/03/09 10:15:19;;;;;;;10.13;6.00;;;;;;;;;;5016860;28;20507;-50
2021/03/09 10:17:45;;;;;;;13.35;6.15;;;;;;;;;;5022533;28;20568;-51
2021/03/09 10:20:21;;;;;;;16.85;5.88;;;;;;;;;;5032239;28;20188;-51
2021/03/09 10:22:48;;;;;;;14.95;5.90;;;;;;;;;;5024008;28;20177;-51
2021/03/09 10:25:15;;;;;;;20.55;7.68;;;;;;;;;;5017759;28;20168;-51
2021/03/09 10:27:41;;;;;;;29.75;8.95;;;;;;;;;;5030663;28;20605;-51
2021/03/09 10:30:07;;;;;;;24.55;8.32;;;;;;;;;;5025042;28;20204;-51
2021/03/09 10:32:48;;;;;;;27.67;8.45;;;;;;;;;;5024825;28;20187;-51
2021/03/09 10:35:14;;;;;;;23.05;8.80;;;;;;;;;;5025897;28;20222;-51
2021/03/09 10:37:41;;;;;;;15.30;7.20;;;;;;;;;;5023386;28;20208;-51
2021/03/09 10:40:09;;;;;;;21.60;7.13;;;;;;;;;;5030701;28;20182;-51
2021/03/09 10:42:37;;;;;;;20.48;7.55;;;;;;;;;;5025068;28;20227;-51
2021/03/09 10:45:22;;;;;;;22.20;8.13;;;;;;;;;;5025639;28;20206;-51
2021/03/09 10:47:52;;;;;;;15.02;7.22;;;;;;;;;;5027290;28;20271;-51
2021/03/09 10:50:19;;;;;;;21.83;7.07;;;;;;;;;;5027169;28;20196;-51
2021/03/09 10:52:45;;;;;;;19.25;8.02;;;;;;;;;;5029752;28;20184;-49
2021/03/09 10:55:12;;;;;;;17.45;7.20;;;;;;;;;;5019773;28;20192;-49
2021/03/09 10:57:38;;;;;;;21.45;8.18;;;;;;;;;;5030567;28;20219;-56
2021/03/09 11:00:07;;;;;;;19.00;8.00;;;;;;;;;;5026919;28;20180;-53
2021/03/09 11:02:33;;;;;;;20.42;8.52;;;;;;;;;;5028009;28;20195;-54
2021/03/09 11:04:59;;;;;;;17.42;8.73;;;;;;;;;;5029277;28;20185;-49
2021/03/09 11:07:25;;;;;;;15.88;8.18;;;;;;;;;;5020625;28;20188;-49
2021/03/09 11:09:51;;;;;;;20.67;9.75;;;;;;;;;;5028287;28;20187;-55
2021/03/09 11:12:17;;;;;;;20.92;9.18;;;;;;;;;;5028950;28;20200;-53
2021/03/09 11:14:43;;;;;;;21.40;9.85;;;;;;;;;;5027075;28;20219;-59
2021/03/09 11:17:09;;;;;;;26.55;10.15;;;;;;;;;;5028630;28;20183;-49
2021/03/09 11:19:35;;;;;;;19.98;10.32;;;;;;;;;;5031850;28;20468;-49
2021/03/09 11:22:01;;;;;;;21.65;9.40;;;;;;;;;;5026883;28;20195;-50
2021/03/09 11:24:27;;;;;;;22.25;9.88;;;;;;;;;;5018001;28;20180;-51
2021/03/09 11:26:59;;;;;;;20.48;10.50;;;;;;;;;;5018191;28;20184;-52
2021/03/09 11:29:25;;;;;;;25.02;11.02;;;;;;;;;;5019169;28;20240;-50
2021/03/09 11:31:51;;;;;;;20.63;10.60;;;;;;;;;;5022150;28;20199;-50
2021/03/09 11:34:17;;;;;;;25.67;11.85;;;;;;;;;;5031171;28;20200;-53
2021/03/09 11:36:43;;;;;;;24.00;11.00;;;;;;;;;;5019142;28;20196;-53
2021/03/09 11:39:09;;;;;;;25.48;11.60;;;;;;;;;;5027239;28;20215;-53
2021/03/09 11:41:35;;;;;;;33.50;11.13;;;;;;;;;;5024657;28;20181;-53
2021/03/09 11:44:01;;;;;;;25.05;11.00;;;;;;;;;;5032233;28;20187;-53
2021/03/09 11:46:27;;;;;;;20.30;11.00;;;;;;;;;;5017272;28;20180;-53
2021/03/09 11:48:53;;;;;;;22.50;10.57;;;;;;;;;;5021194;28;20618;-53
2021/03/09 11:51:19;;;;;;;27.25;10.82;;;;;;;;;;5020742;28;20262;-50
2021/03/09 11:53:45;;;;;;;22.65;10.75;;;;;;;;;;5030810;28;20567;-48
2021/03/09 11:56:11;;;;;;;21.33;10.30;;;;;;;;;;5031055;28;20180;-50
2021/03/09 11:58:37;;;;;;;17.58;9.52;;;;;;;;;;5019282;28;20259;-50
2021/03/09 12:01:04;;;;;;;18.65;9.30;;;;;;;;;;5023573;28;20271;-53
2021/03/09 12:03:31;;;;;;;19.73;9.48;;;;;;;;;;5022798;28;20753;-53
2021/03/09 12:05:57;;;;;;;20.13;8.63;;;;;;;;;;5021160;28;20246;-53
2021/03/09 12:08:23;;;;;;;19.73;9.05;;;;;;;;;;5019245;28;20189;-53
2021/03/09 12:10:49;;;;;;;21.60;8.93;;;;;;;;;;5031129;28;20491;-53
2021/03/09 12:13:15;;;;;;;19.73;8.80;;;;;;;;;;5015550;28;20627;-53
2021/03/09 12:15:41;;;;;;;19.42;8.45;;;;;;;;;;5021851;28;20195;-53
2021/03/09 12:18:07;;;;;;;16.75;8.45;;;;;;;;;;5021465;28;20558;-53
2021/03/09 12:20:33;;;;;;;14.13;7.57;;;;;;;;;;5024399;28;20251;-54
2021/03/09 12:22:59;;;;;;;15.13;7.65;;;;;;;;;;5014720;28;20208;-53
2021/03/09 12:25:26;;;;;;;14.70;7.90;;;;;;;;;;5014865;28;20219;-53
2021/03/09 12:27:52;;;;;;;16.30;8.25;;;;;;;;;;5020225;28;20185;-53
2021/03/09 12:30:18;;;;;;;12.82;7.18;;;;;;;;;;5016483;28;20252;-53
2021/03/09 12:32:44;;;;;;;18.20;7.75;;;;;;;;;;5034383;28;20187;-53
2021/03/09 12:35:11;;;;;;;14.05;7.38;;;;;;;;;;5033518;28;20736;-53
2021/03/09 12:37:37;;;;;;;12.90;7.18;;;;;;;;;;5026900;28;20203;-53
2021/03/09 12:40:04;;;;;;;13.23;6.95;;;;;;;;;;5033194;28;20300;-53
2021/03/09 12:42:30;;;;;;;12.27;7.13;;;;;;;;;;5018629;28;20177;-53
2021/03/09 12:44:56;;;;;;;15.05;7.18;;;;;;;;;;5033900;28;20180;-53
2021/03/09 12:47:22;;;;;;;9.40;6.70;;;;;;;;;;5026191;28;20483;-53
2021/03/09 12:49:48;;;;;;;13.18;6.75;;;;;;;;;;5025008;28;20191;-53
2021/03/09 12:52:14;;;;;;;14.23;6.88;;;;;;;;;;5014322;28;20544;-53
2021/03/09 12:54:40;;;;;;;11.30;6.07;;;;;;;;;;5019566;28;20184;-53
2021/03/09 12:57:06;;;;;;;9.20;6.10;;;;;;;;;;5034114;28;20184;-53
2021/03/09 12:59:32;;;;;;;10.45;6.53;;;;;;;;;;5026818;28;20216;-53
2021/03/09 13:01:58;;;;;;;10.15;6.25;;;;;;;;;;5022075;28;20230;-53
2021/03/09 13:04:24;;;;;;;8.43;5.45;;;;;;;;;;5017684;28;20242;-53
2021/03/09 13:06:50;;;;;;;9.98;6.30;;;;;;;;;;5020748;28;20184;-53
2021/03/09 13:09:16;;;;;;;8.88;6.00;;;;;;;;;;5030761;28;20451;-53
2021/03/09 13:11:42;;;;;;;13.93;6.80;;;;;;;;;;5027537;28;20184;-53
2021/03/09 13:14:08;;;;;;;8.55;5.78;;;;;;;;;;5025060;28;20191;-53
2021/03/09 13:16:34;;;;;;;9.95;5.80;;;;;;;;;;5031099;28;20183;-53
2021/03/09 13:19:00;;;;;;;8.82;5.32;;;;;;;;;;5032876;28;20293;-53
2021/03/09 13:21:26;;;;;;;12.32;5.80;;;;;;;;;;5016424;28;20460;-53
2021/03/09 13:23:52;;;;;;;10.23;6.00;;;;;;;;;;5031135;28;20210;-53
2021/03/09 13:26:18;;;;;;;10.63;5.97;;;;;;;;;;5014213;28;20531;-53
2021/03/09 13:28:44;;;;;;;8.70;5.38;;;;;;;;;;5022069;28;20264;-53
2021/03/09 13:31:12;;;;;;;11.43;5.88;;;;;;;;;;5015268;28;20203;-54
2021/03/09 13:33:38;;;;;;;8.55;5.05;;;;;;;;;;5015547;28;20242;-54
2021/03/09 13:36:05;;;;;;;7.80;5.55;;;;;;;;;;5025785;28;20198;-54
2021/03/09 13:38:31;;;;;;;8.95;5.10;;;;;;;;;;5023484;28;20204;-54
2021/03/09 13:40:57;;;;;;;8.52;5.07;;;;;;;;;;5021248;28;20237;-54
2021/03/09 13:43:23;;;;;;;7.88;5.15;;;;;;;;;;5024171;28;20266;-54
2021/03/09 13:45:49;;;;;;;8.35;5.63;;;;;;;;;;5019852;28;20188;-54
2021/03/09 13:48:15;;;;;;;10.95;5.90;;;;;;;;;;5026324;28;20181;-54
2021/03/09 13:50:41;;;;;;;8.63;5.68;;;;;;;;;;5025828;28;20184;-54
2021/03/09 13:53:07;;;;;;;6.68;5.28;;;;;;;;;;5029090;28;20474;-54
2021/03/09 13:55:34;;;;;;;10.63;5.78;;;;;;;;;;5031515;28;20285;-54
2021/03/09 13:58:00;;;;;;;7.60;4.95;;;;;;;;;;5021643;28;20350;-54
2021/03/09 14:00:26;;;;;;;12.05;5.22;;;;;;;;;;5030118;28;20184;-54
2021/03/09 14:02:52;;;;;;;8.18;4.72;;;;;;;;;;5026281;28;20248;-54
2021/03/09 14:05:19;;;;;;;7.38;4.85;;;;;;;;;;5034398;28;20184;-54
2021/03/09 14:07:45;;;;;;;6.80;4.70;;;;;;;;;;5019962;28;20516;-54
2021/03/09 14:10:11;;;;;;;7.70;4.63;;;;;;;;;;5026000;28;20192;-54
2021/03/09 14:12:37;;;;;;;9.35;4.85;;;;;;;;;;5019357;28;20208;-54
2021/03/09 14:15:07;;;;;;;8.52;5.05;;;;;;;;;;5035913;28;20531;-54
2021/03/09 14:17:33;;;;;;;6.47;4.05;;;;;;;;;;5036142;28;20199;-54
2021/03/09 14:20:00;;;;;;;5.88;4.47;;;;;;;;;;5029725;28;20589;-54
2021/03/09 14:22:26;;;;;;;6.07;4.50;;;;;;;;;;5025127;28;20181;-54
2021/03/09 14:24:52;;;;;;;4.93;4.28;;;;;;;;;;5034671;28;20176;-54
2021/03/09 14:27:18;;;;;;;5.68;4.50;;;;;;;;;;5026166;28;20207;-54
2021/03/09 14:29:44;;;;;;;4.57;3.50;;;;;;;;;;5035497;28;20204;-54
2021/03/09 14:32:10;;;;;;;5.47;4.03;;;;;;;;;;5035157;28;20581;-54
2021/03/09 14:34:37;;;;;;;6.03;4.40;;;;;;;;;;5018139;28;20207;-54
2021/03/09 14:37:03;;;;;;;5.45;3.80;;;;;;;;;;5030819;28;20530;-54
2021/03/09 14:39:29;;;;;;;5.35;3.83;;;;;;;;;;5017900;28;20284;-54
2021/03/09 14:41:56;;;;;;;5.10;3.80;;;;;;;;;;5036549;28;20184;-54
2021/03/09 14:44:22;;;;;;;4.03;3.47;;;;;;;;;;5030052;28;20185;-54
2021/03/09 14:46:48;;;;;;;4.15;3.72;;;;;;;;;;5029357;28;20259;-54
2021/03/09 14:49:14;;;;;;;5.70;3.38;;;;;;;;;;5016982;28;20219;-54
2021/03/09 14:51:40;;;;;;;5.18;3.92;;;;;;;;;;5034563;28;20215;-54